Las Vegas, NM

1:58 PM MDT en Julio 25, 2014 (GMT -0600)
Angel Fire (KAXX) Alt 8379 ft | 36.42 °N, 105.29 °W | Change Station

Current weather conditions updated 23 minutes ago

Clear
Despejado
79 ° F
Sensación térmica 79 ° F
N
12
Viento Variable Viento desde OSO
Gusts 21 mph

Hoy se prevé un día Mucho más cálido que ayer.

Hoy
Alta -- | Baja -- ° F
--% Posibilidad de precipitaciones
Ayer
Alta -- | Baja -- ° F
Precip. -- pul
6:03 AM 8:10 PM
Creciente menguante, 1% visible
Presión 30.40 pul
Visibilidad 10.0 Millas
Nubes Despejado
Punto de rocío 46 ° F
Humedad 31%
Precipitaciones 0.00 pul
Espesor de la nieve No disponible.
UV 13 de una escala de 12
Polen 4.40 de una escala de 12
Calidad del aire No disponible.
Flu Activity No disponible.
METAR KAXX 251935Z AUTO 24010G18KT 10SM CLR 26/08 A3040 RMK AO2 T02610076

More Conditions Fewer Conditions

Presión 30.40 pul
Visibilidad 10.0 Millas
Nubes Despejado
Punto de rocío 46 ° F
Humedad 31%
Precipitaciones 0.00 pul
Espesor de la nieve No disponible.
UV 13 de una escala de 12
Polen 4.40 de una escala de 12
Calidad del aire No disponible.
Flu Activity No disponible.
METAR KAXX 251935Z AUTO 24010G18KT 10SM CLR 26/08 A3040 RMK AO2 T02610076

More Conditions Fewer Conditions

10-Day Weather Forecast

Almanac

Astronomía

Jul. 25, 2014 Salida Puesta
Hora real 6:03 AM MDT 8:10 PM MDT
Crepúsculo civil 5:35 AM MDT 8:38 PM MDT
Crepúsculo náutico 5:00 AM MDT 9:13 PM MDT
Crepúsculo astronómico 4:22 AM MDT 9:51 PM MDT
Luna 5:04 AM MDT 7:11 PM MDT
Horas de luz 15h 03m
Horas de luz
14h 06m
Tomorrow will be 1m 31s shorter.
Creciente menguante, 1% of the Moon is Illuminated
Hoy
Creciente menguante
Jul 26
Nueva
Ago 3
Cuarto creciente
Ago 10
Luna llena
Ago 17
Cuarto menguante

Extremos de hoy

Máximos del estado Bajos del estado

Community

WunderPhotos

Upload Photos

1,737,393 ¡fotos cargadas!

Nearby

Grosos de nieve

Estación Profundido Altura
Wesner Springs 0 in 11120 ft
Santa Fe 0 in 11445 ft
North Costilla 0 in 10600 ft
Silver Creek Divide 1 in 9000 ft

Actividad de terremotos

Ciudad Distance Mag. Tiempo y dato
No hay informes recientes de la actividad sísmica.
Magnitud mínima muestra es 2,5.

Temperaturas de aguas costeras

Lugar Temperatura
Sin partes meteorológicos de las estaciones

Estaciones meteorológicas cercanas

Ubicación de la estación Temp. Índice de calor Punto de rocío Humedad Viento Precip. Alt Actualizado Tipo
San Geronimo, Las Vegas, NM 87.8 ° F 85 ° F 48 ° F 25% NO  a  13.0 mph 0.00 pul / hr 6778 ft 1:58 PM MDT Rapid Fire
Ilfeld, NM 90.1 ° F 87 ° F 45 ° F 21% Oeste  a  6.9 mph 0.00 pul / hr 6447 ft 1:58 PM MDT Rapid Fire
Pendaries RV Resort, Rociada, NM 84.5 ° F 82 ° F 46 ° F 26% Este  a  0.0 mph 0.00 pul / hr 7750 ft 1:58 PM MDT Rapid Fire

Show More Stations Show Fewer Stations